Time,TemperatureF,DewpointF,PressureIn,WindDirection,WindDirectionDegrees,WindSpeedMPH,WindSpeedGustMPH,Humidity,HourlyPrecipIn,Conditions,Clouds,dailyrainin,SoftwareType,DateUTC
2013-04-05 00:05:00,52.3,52.3,29.87,SE,137,0.0,3.0,100,0.00,,,0.78,Wunderground v.1.15,2013-04-05 07:05:00,
2013-04-05 01:05:00,52.0,52.0,29.88,NW,306,0.0,1.0,100,0.00,,,0.78,Wunderground v.1.15,2013-04-05 08:05:00,
2013-04-05 01:34:00,52.0,52.0,29.89,SSE,161,0.0,2.0,100,0.00,,,0.00,Wunderground v.1.15,2013-04-05 08:34:00,
2013-04-05 02:05:00,51.9,51.9,29.89,West,277,0.0,2.0,100,0.10,,,0.02,Wunderground v.1.15,2013-04-05 09:05:00,
2013-04-05 02:35:00,51.9,51.9,29.90,NW,305,0.0,5.0,100,0.05,,,0.04,Wunderground v.1.15,2013-04-05 09:35:00,
2013-04-05 03:05:00,51.7,51.7,29.90,West,264,0.0,2.0,100,0.09,,,0.06,Wunderground v.1.15,2013-04-05 10:05:00,
2013-04-05 03:35:00,51.7,51.7,29.91,ENE,58,0.0,2.0,100,0.00,,,0.06,Wunderground v.1.15,2013-04-05 10:35:00,
2013-04-05 04:05:00,51.4,51.4,29.91,SW,223,0.0,1.0,100,0.00,,,0.06,Wunderground v.1.15,2013-04-05 11:05:00,
2013-04-05 04:35:00,51.6,51.6,29.92,SW,226,0.0,1.0,100,0.00,,,0.06,Wunderground v.1.15,2013-04-05 11:35:00,
2013-04-05 05:05:00,51.4,51.4,29.92,SW,234,0.0,2.0,100,0.00,,,0.07,Wunderground v.1.15,2013-04-05 12:05:00,
2013-04-05 05:35:00,51.6,51.6,29.91,WSW,237,0.0,1.0,100,0.00,,,0.08,Wunderground v.1.15,2013-04-05 12:35:00,
2013-04-05 06:04:00,51.4,51.4,29.92,WSW,258,0.0,1.0,100,0.04,,,0.10,Wunderground v.1.15,2013-04-05 13:04:00,
2013-04-05 06:35:00,51.1,51.1,29.92,WSW,237,0.0,2.0,100,0.00,,,0.10,Wunderground v.1.15,2013-04-05 13:35:00,
2013-04-05 07:05:00,50.8,50.8,29.92,ESE,109,0.0,1.0,100,0.05,,,0.12,Wunderground v.1.15,2013-04-05 14:05:00,
2013-04-05 08:05:00,51.3,51.3,29.93,SSW,209,0.0,2.0,100,0.00,,,0.13,Wunderground v.1.15,2013-04-05 15:05:00,
2013-04-05 08:35:00,51.3,51.3,29.94,North,0,0.0,1.0,100,0.00,,,0.13,Wunderground v.1.15,2013-04-05 15:35:00,
2013-04-05 09:05:00,51.3,51.3,29.94,West,275,0.0,2.0,100,0.00,,,0.13,Wunderground v.1.15,2013-04-05 16:05:00,
2013-04-05 10:05:00,51.4,51.4,29.94,SW,215,0.0,1.0,100,0.00,,,0.13,Wunderground v.1.15,2013-04-05 17:05:00,
2013-04-05 10:35:00,51.7,51.7,29.94,WSW,246,0.0,1.0,100,0.00,,,0.13,Wunderground v.1.15,2013-04-05 17:35:00,
2013-04-05 11:05:00,51.7,51.7,29.95,North,0,0.0,2.0,100,0.00,,,0.14,Wunderground v.1.15,2013-04-05 18:05:00,
2013-04-05 11:35:00,52.2,52.2,29.96,ENE,69,0.0,3.0,100,0.00,,,0.14,Wunderground v.1.15,2013-04-05 18:35:00,
2013-04-05 12:05:00,52.2,52.2,29.96,WNW,295,0.0,2.0,100,0.00,,,0.14,Wunderground v.1.15,2013-04-05 19:05:00,
2013-04-05 12:35:00,52.0,52.0,29.96,North,0,0.0,2.0,100,0.00,,,0.14,Wunderground v.1.15,2013-04-05 19:35:00,
2013-04-05 13:05:00,52.5,52.5,29.96,West,260,0.0,5.0,100,0.00,,,0.14,Wunderground v.1.15,2013-04-05 20:05:00,
2013-04-05 13:35:00,52.2,52.2,29.95,SW,229,0.0,3.0,100,0.00,,,0.14,Wunderground v.1.15,2013-04-05 20:35:00,
2013-04-05 14:05:00,51.9,51.9,29.95,North,0,0.0,3.0,100,0.06,,,0.17,Wunderground v.1.15,2013-04-05 21:05:00,
2013-04-05 14:35:00,51.9,51.9,29.94,SW,230,0.0,1.0,100,0.06,,,0.23,Wunderground v.1.15,2013-04-05 21:35:00,
2013-04-05 15:05:00,52.2,52.2,29.94,North,4,0.0,3.0,100,0.04,,,0.25,Wunderground v.1.15,2013-04-05 22:05:00,
2013-04-05 15:35:00,51.9,51.9,29.93,South,171,0.0,5.0,100,0.06,,,0.28,Wunderground v.1.15,2013-04-05 22:35:00,
2013-04-05 16:05:00,52.2,52.2,29.93,NE,34,0.0,5.0,100,0.00,,,0.31,Wunderground v.1.15,2013-04-05 23:05:00,
2013-04-05 16:35:00,52.2,52.2,29.91,North,0,0.0,2.0,100,0.00,,,0.32,Wunderground v.1.15,2013-04-05 23:35:00,
2013-04-05 17:05:00,52.2,52.2,29.90,SE,130,0.0,2.0,100,0.05,,,0.34,Wunderground v.1.15,2013-04-06 00:05:00,
2013-04-05 17:34:00,52.6,52.6,29.88,East,95,0.0,2.0,100,0.00,,,0.34,Wunderground v.1.15,2013-04-06 00:34:00,
2013-04-05 18:05:00,52.8,52.8,29.87,SE,134,0.0,1.0,100,0.00,,,0.35,Wunderground v.1.15,2013-04-06 01:05:00,
2013-04-05 18:35:00,52.5,52.5,29.86,East,88,0.0,1.0,100,0.00,,,0.35,Wunderground v.1.15,2013-04-06 01:35:00,
2013-04-05 19:05:00,52.2,52.2,29.85,SE,133,0.0,0.0,100,0.06,,,0.38,Wunderground v.1.15,2013-04-06 02:05:00,
2013-04-05 20:05:00,51.7,51.7,29.82,East,93,0.0,0.0,100,0.04,,,0.42,Wunderground v.1.15,2013-04-06 03:05:00,
2013-04-05 20:35:00,51.7,51.7,29.82,ESE,121,0.0,1.0,100,0.05,,,0.47,Wunderground v.1.15,2013-04-06 03:35:00,
2013-04-05 21:05:00,52.0,52.0,29.82,WNW,296,0.0,1.0,100,0.00,,,0.48,Wunderground v.1.15,2013-04-06 04:05:00,
2013-04-05 21:35:00,52.2,52.2,29.82,SSE,168,0.0,2.0,100,0.14,,,0.52,Wunderground v.1.15,2013-04-06 04:35:00,
2013-04-05 22:05:00,52.2,52.2,29.84,ESE,110,1.0,3.0,100,0.08,,,0.56,Wunderground v.1.15,2013-04-06 05:05:00,
2013-04-05 22:35:00,52.0,52.0,29.84,NNW,344,0.0,3.0,100,0.06,,,0.60,Wunderground v.1.15,2013-04-06 05:35:00,
2013-04-05 23:05:00,52.0,52.0,29.85,West,264,0.0,3.0,100,0.16,,,0.61,Wunderground v.1.15,2013-04-06 06:05:00,
2013-04-05 23:35:00,51.9,51.9,29.85,South,186,0.0,2.0,100,0.00,,,0.61,Wunderground v.1.15,2013-04-06 06:35:00,